Terminal Aerodrome Forecast
Issued by NWS

Home | Current Version | Previous Version | Text Only | Print | Product List | Glossary On
Versions: 1 2 3 4 5 6 7 8 9 10 11 12 13 14 15 16 17 18 19 20
000
FTUS46 KSEW 202100 AAA
TAFHQM
TAF AMD
KHQM 202113Z 2021/2118 20017KT 1SM -RA BR OVC006
     FM210400 21020G28KT 4SM -RA BR OVC007
     FM211100 23018G26KT 4SM -RA HZ BR OVC015
     FM211400 23015KT 4SM -RA OVC015
     FM211600 23013KT P6SM OVC015
      TEMPO 2116/2117 4SM -RA OVC015
     FM211700 23012KT 4SM BR OVC015 PROB30 2117/2118 4SM -RA OVC015=

USA.gov is the U.S. government's official web portal to all federal, state and local government web resources and services.